YPTN/KTR METAR and TAF weather

Enter ICAO airport designator
Station Type Date Time Source
YPTN METAR 2018/12/15 23:30 UTC NOAA

YPTN 152330Z AUTO 29007KT 9999 // NCD 30/21 Q1008


Station Type Date Time Source
YPTN Decoded METAR 2018/12/15 23:30 UTC NOAA

Tindal / Katherine, Australia (YPTN) 14-26S 132-16E 109M
Dec 15, 2018 - 06:30 PM EST / 2018.12.15 2330 UTC
Wind: from the WNW (290 degrees) at 8 MPH (7 KT):0
Visibility: greater than 7 mile(s):0
Temperature: 86 F (30 C)
Dew Point: 69 F (21 C)
Relative Humidity: 58%
Pressure (altimeter): 29.77 in. Hg (1008 hPa)
ob: YPTN 152330Z AUTO 29007KT 9999 // NCD 30/21 Q1008
cycle: 23

Station Type Date Time Source
YPTN TAF 2018/12/15 18:42 UTC NOAA

TAF
AMD TAF
AMD YPTN 151839Z 1518/1618 21012KT CAVOK
FM152100 32004KT 9999 SCT020
FM160000 32009KT 9999 SCT035 PROB30
TEMPO 1606/1612 VRB25G40KT 1000 TSRA BKN010 SCT030CB


Example: see airport list